createdAt,value
2022-12-04T00:01:17.918Z,101501.53
2022-12-04T00:03:44.578Z,101499.63
2022-12-04T00:06:19.031Z,101510.19
2022-12-04T00:08:46.272Z,101505.84
2022-12-04T00:11:15.044Z,101511.91
2022-12-04T00:13:42.200Z,101514.38
2022-12-04T00:16:12.302Z,101516.78
2022-12-04T00:18:38.976Z,101508.59
2022-12-04T00:21:07.257Z,101504.25
2022-12-04T00:23:35.013Z,101511.75
2022-12-04T00:26:06.917Z,101512.31
2022-12-04T00:28:33.967Z,101516.88
2022-12-04T00:31:00.700Z,101514.38
2022-12-04T00:33:27.434Z,101510.88
2022-12-04T00:36:01.791Z,101508.91
2022-12-04T00:38:28.521Z,101509.91
2022-12-04T00:40:55.485Z,101514.09
2022-12-04T00:43:23.112Z,101514.47
2022-12-04T00:45:50.209Z,101517.09
2022-12-04T00:48:16.994Z,101515.03
2022-12-04T00:50:43.744Z,101520.28
2022-12-04T00:53:10.505Z,101518.31
2022-12-04T00:55:41.382Z,101521.03
2022-12-04T00:58:08.260Z,101517.66
2022-12-04T01:00:39.172Z,101522.22
2022-12-04T01:03:06.806Z,101510.00
2022-12-04T01:05:41.664Z,101514.78
2022-12-04T01:08:09.269Z,101519.81
2022-12-04T01:10:41.927Z,101517.31
2022-12-04T01:13:08.758Z,101524.31
2022-12-04T01:15:39.546Z,101505.63
2022-12-04T01:18:06.297Z,101511.53
2022-12-04T01:20:33.041Z,101524.38
2022-12-04T01:22:59.682Z,101512.31
2022-12-04T01:25:26.356Z,101517.50
2022-12-04T01:27:53.001Z,101511.13
2022-12-04T01:30:19.777Z,101518.88
2022-12-04T01:32:46.432Z,101520.66
2022-12-04T01:35:13.202Z,101512.75
2022-12-04T01:37:39.882Z,101519.03
2022-12-04T01:40:08.425Z,101517.34
2022-12-04T01:42:35.042Z,101534.28
2022-12-04T01:45:39.745Z,101522.66
2022-12-04T01:48:38.799Z,101521.47
2022-12-04T01:51:22.600Z,101521.91
2022-12-04T01:53:58.777Z,101528.19
2022-12-04T01:56:33.437Z,101513.72
2022-12-04T01:59:01.551Z,101517.16
2022-12-04T02:01:29.759Z,101517.34
2022-12-04T02:03:56.996Z,101515.81
2022-12-04T02:06:23.734Z,101519.41
2022-12-04T02:08:50.494Z,101507.13
2022-12-04T02:11:39.573Z,101518.44
2022-12-04T02:14:21.629Z,101516.78
2022-12-04T02:16:58.287Z,101515.09
2022-12-04T02:19:46.488Z,101528.97
2022-12-04T02:22:48.624Z,101523.22
2022-12-04T02:25:25.394Z,101533.28
2022-12-04T02:28:02.255Z,101528.97
2022-12-04T02:30:30.568Z,101532.81
2022-12-04T02:33:20.497Z,101533.84
2022-12-04T02:35:50.520Z,101528.91
2022-12-04T02:38:17.124Z,101530.97
2022-12-04T02:40:59.269Z,101534.66
2022-12-04T02:43:51.854Z,101536.63
2022-12-04T02:46:27.108Z,101529.56
2022-12-04T02:48:55.600Z,101535.94
2022-12-04T02:51:23.900Z,101534.78
2022-12-04T02:53:55.699Z,101541.59
2022-12-04T02:56:28.241Z,101543.59
2022-12-04T02:59:14.596Z,101531.88
2022-12-04T03:01:45.066Z,101523.97
2022-12-04T03:04:18.690Z,101532.03
2022-12-04T03:06:49.694Z,101537.06
2022-12-04T03:09:30.960Z,101526.84
2022-12-04T03:12:02.579Z,101536.81
2022-12-04T03:14:32.197Z,101543.97
2022-12-04T03:17:03.137Z,101543.81
2022-12-04T03:19:42.091Z,101533.22
2022-12-04T03:22:12.139Z,101538.63
2022-12-04T03:24:54.018Z,101519.91
2022-12-04T03:27:38.468Z,101528.84
2022-12-04T03:30:14.615Z,101533.94
2022-12-04T03:33:03.113Z,101541.28
2022-12-04T03:35:34.480Z,101537.84
2022-12-04T03:38:18.941Z,101541.44
2022-12-04T03:41:07.260Z,101547.97
2022-12-04T03:43:37.947Z,101549.09
2022-12-04T03:46:10.586Z,101550.50
2022-12-04T03:48:37.183Z,101545.94
2022-12-04T03:51:18.871Z,101553.97
2022-12-04T03:54:05.867Z,101552.59
2022-12-04T03:56:40.468Z,101539.66
2022-12-04T03:59:12.736Z,101551.66
2022-12-04T04:01:43.520Z,101543.44
2022-12-04T04:04:14.210Z,101555.00
2022-12-04T04:06:47.279Z,101551.41
2022-12-04T04:09:19.563Z,101557.56
2022-12-04T04:11:54.479Z,101555.25
2022-12-04T04:14:43.472Z,101556.84
2022-12-04T04:17:37.967Z,101553.97
2022-12-04T04:20:37.957Z,101548.44
2022-12-04T04:23:24.491Z,101537.63
2022-12-04T04:25:52.280Z,101548.28
2022-12-04T04:28:29.020Z,101556.59
2022-12-04T04:31:04.170Z,101551.09
2022-12-04T04:33:32.695Z,101561.63
2022-12-04T04:36:18.908Z,101557.47
2022-12-04T04:39:06.799Z,101565.78
2022-12-04T04:41:58.584Z,101557.78
2022-12-04T04:44:55.870Z,101561.38
2022-12-04T04:47:31.312Z,101554.03
2022-12-04T04:49:58.185Z,101557.38
2022-12-04T04:52:25.319Z,101557.22
2022-12-04T04:54:51.943Z,101550.59
2022-12-04T04:57:35.931Z,101552.59
2022-12-04T05:00:06.447Z,101567.34
2022-12-04T05:02:33.890Z,101571.66
2022-12-04T05:05:00.577Z,101569.13
2022-12-04T05:07:27.278Z,101570.41
2022-12-04T05:09:54.267Z,101577.50
2022-12-04T05:12:21.261Z,101579.97
2022-12-04T05:14:48.658Z,101569.84
2022-12-04T05:17:15.654Z,101568.53
2022-12-04T05:19:55.009Z,101580.59
2022-12-04T05:22:33.356Z,101577.38
2022-12-04T05:25:00.543Z,101568.44
2022-12-04T05:27:28.918Z,101574.97
2022-12-04T05:29:57.480Z,101544.16
2022-12-04T05:32:26.154Z,101572.25
2022-12-04T05:34:54.313Z,101567.31
2022-12-04T05:37:21.549Z,101562.63
2022-12-04T05:39:48.510Z,101558.66
2022-12-04T05:42:15.522Z,101569.63
2022-12-04T05:44:42.216Z,101575.50
2022-12-04T05:47:09.420Z,101583.91
2022-12-04T05:49:36.093Z,101566.22
2022-12-04T05:52:04.862Z,101573.78
2022-12-04T05:54:32.076Z,101578.47
2022-12-04T05:56:59.052Z,101578.72
2022-12-04T05:59:25.773Z,101571.50
2022-12-04T06:01:52.488Z,101569.03
2022-12-04T06:04:19.137Z,101581.00
2022-12-04T06:06:45.926Z,101583.78
2022-12-04T06:09:12.818Z,101578.63
2022-12-04T06:11:40.666Z,101579.00
2022-12-04T06:14:10.808Z,101575.47
2022-12-04T06:16:39.301Z,101578.38
2022-12-04T06:19:25.895Z,101579.25
2022-12-04T06:21:53.238Z,101571.09
2022-12-04T06:24:24.431Z,101591.69
2022-12-04T06:27:25.491Z,101597.00
2022-12-04T06:29:38.030Z,101601.63
2022-12-04T06:32:04.928Z,101601.25
2022-12-04T06:34:32.539Z,101601.97
2022-12-04T06:36:59.199Z,101594.47
2022-12-04T06:39:25.823Z,101599.06
2022-12-04T06:41:52.416Z,101604.09
2022-12-04T06:44:19.062Z,101607.72
2022-12-04T06:46:47.572Z,101593.31
2022-12-04T06:49:14.727Z,101610.22
2022-12-04T06:51:41.471Z,101610.56
2022-12-04T06:54:09.772Z,101614.28
2022-12-04T06:56:36.426Z,101617.50
2022-12-04T06:59:04.054Z,101611.91
2022-12-04T07:01:33.713Z,101611.78
2022-12-04T07:04:01.252Z,101612.16
2022-12-04T07:06:29.803Z,101613.03
2022-12-04T07:09:11.271Z,101619.97
2022-12-04T07:11:39.029Z,101621.56
2022-12-04T07:14:05.670Z,101610.75
2022-12-04T07:16:38.349Z,101611.00
2022-12-04T07:19:07.641Z,101608.97
2022-12-04T07:21:34.934Z,101583.84
2022-12-04T07:24:01.926Z,101617.97
2022-12-04T07:26:29.712Z,101611.69
2022-12-04T07:28:57.394Z,101601.75
2022-12-04T07:31:25.838Z,101603.91
2022-12-04T07:33:54.103Z,101598.16
2022-12-04T07:36:22.260Z,101607.13
2022-12-04T07:38:49.119Z,101613.25
2022-12-04T07:41:15.898Z,101610.88
2022-12-04T07:43:43.070Z,101600.50
2022-12-04T07:46:13.695Z,101608.84
2022-12-04T07:48:40.756Z,101614.13
2022-12-04T07:51:12.632Z,101608.94
2022-12-04T07:53:39.430Z,101614.41
2022-12-04T07:56:07.085Z,101617.56
2022-12-04T07:58:34.306Z,101610.44
2022-12-04T08:01:08.138Z,101611.97
2022-12-04T08:03:34.896Z,101610.69
2022-12-04T08:06:02.744Z,101611.88
2022-12-04T08:08:36.179Z,101619.81
2022-12-04T08:11:13.229Z,101610.28
2022-12-04T08:13:39.863Z,101610.53
2022-12-04T08:16:08.557Z,101616.94
2022-12-04T08:18:35.555Z,101622.13
2022-12-04T08:21:23.099Z,101609.91
2022-12-04T08:23:51.870Z,101602.25
2022-12-04T08:26:25.050Z,101611.03
2022-12-04T08:28:56.106Z,101596.19
2022-12-04T08:31:25.981Z,101593.19
2022-12-04T08:33:54.833Z,101606.81
2022-12-04T08:36:21.883Z,101599.56
2022-12-04T08:38:48.812Z,101602.88
2022-12-04T08:41:18.262Z,101602.31
2022-12-04T08:43:45.174Z,101598.22
2022-12-04T08:46:13.900Z,101604.25
2022-12-04T08:48:40.712Z,101603.59
2022-12-04T08:51:08.466Z,101608.25
2022-12-04T08:53:36.851Z,101592.00
2022-12-04T08:56:04.501Z,101597.28
2022-12-04T08:58:31.370Z,101589.75
2022-12-04T09:01:05.038Z,101601.34
2022-12-04T09:03:31.719Z,101599.91
2022-12-04T09:06:00.144Z,101591.31
2022-12-04T09:08:26.765Z,101584.84
2022-12-04T09:10:53.638Z,101587.06
2022-12-04T09:13:20.301Z,101582.13
2022-12-04T09:15:47.078Z,101596.22
2022-12-04T09:18:13.825Z,101579.56
2022-12-04T09:20:40.467Z,101591.84
2022-12-04T09:23:07.254Z,101591.31
2022-12-04T09:25:37.779Z,101597.19
2022-12-04T09:28:05.047Z,101599.66
2022-12-04T09:30:31.832Z,101582.53
2022-12-04T09:32:58.562Z,101596.69
2022-12-04T09:35:25.193Z,101590.13
2022-12-04T09:37:51.918Z,101589.53
2022-12-04T09:40:37.201Z,101579.66
2022-12-04T09:43:28.045Z,101582.28
2022-12-04T09:45:57.571Z,101582.13
2022-12-04T09:48:32.038Z,101584.75
2022-12-04T09:50:59.521Z,101564.16
2022-12-04T09:53:29.223Z,101573.97
2022-12-04T09:55:58.827Z,101577.97
2022-12-04T09:58:36.172Z,101563.22
2022-12-04T10:01:03.734Z,101576.03
2022-12-04T10:03:30.835Z,101561.13
2022-12-04T10:06:27.111Z,101570.47
2022-12-04T10:09:00.995Z,101556.19
2022-12-04T10:11:37.899Z,101564.59
2022-12-04T10:14:13.254Z,101562.56
2022-12-04T10:16:42.546Z,101553.16
2022-12-04T10:19:21.519Z,101546.84
2022-12-04T10:21:57.390Z,101553.97
2022-12-04T10:24:40.750Z,101542.56
2022-12-04T10:27:24.174Z,101547.59
2022-12-04T10:29:56.139Z,101544.16
2022-12-04T10:32:26.116Z,101539.06
2022-12-04T10:34:55.111Z,101539.97
2022-12-04T10:37:22.660Z,101540.31
2022-12-04T10:40:03.537Z,101546.59
2022-12-04T10:42:39.179Z,101547.66
2022-12-04T10:45:07.161Z,101547.69
2022-12-04T10:47:34.977Z,101542.28
2022-12-04T10:50:14.304Z,101542.88
2022-12-04T10:52:41.022Z,101523.50
2022-12-04T10:55:07.958Z,101530.03
2022-12-04T10:57:40.734Z,101538.84
2022-12-04T11:00:35.327Z,101530.53
2022-12-04T11:03:05.671Z,101519.34
2022-12-04T11:05:39.954Z,101514.91
2022-12-04T11:08:07.653Z,101495.47
2022-12-04T11:10:43.230Z,101504.16
2022-12-04T11:13:13.035Z,101512.72
2022-12-04T11:15:54.934Z,101507.75
2022-12-04T11:18:30.222Z,101504.69
2022-12-04T11:21:03.565Z,101502.03
2022-12-04T11:23:35.219Z,101500.72
2022-12-04T11:26:05.952Z,101515.63
2022-12-04T11:28:41.635Z,101500.78
2022-12-04T11:31:09.998Z,101503.34
2022-12-04T11:33:45.351Z,101507.50
2022-12-04T11:36:23.568Z,101512.31
2022-12-04T11:38:52.086Z,101499.59
2022-12-04T11:41:30.732Z,101492.69
2022-12-04T11:44:00.304Z,101493.63
2022-12-04T11:46:34.073Z,101492.19
2022-12-04T11:49:03.094Z,101491.72
2022-12-04T11:52:08.247Z,101501.59
2022-12-04T11:54:49.806Z,101507.94
2022-12-04T11:57:21.069Z,101500.47
2022-12-04T12:00:08.900Z,101502.28
2022-12-04T12:03:02.496Z,101493.66
2022-12-04T12:05:29.102Z,101491.72
2022-12-04T12:08:13.847Z,101499.47
2022-12-04T12:10:46.491Z,101497.56
2022-12-04T12:13:50.467Z,101498.34
2022-12-04T12:16:29.436Z,101502.81
2022-12-04T12:19:27.103Z,101504.97
2022-12-04T12:22:05.570Z,101501.19
2022-12-04T12:24:55.112Z,101492.88
2022-12-04T12:27:44.837Z,101500.47
2022-12-04T12:30:18.728Z,101498.34
2022-12-04T12:33:14.141Z,101491.47
2022-12-04T12:35:52.906Z,101491.03
2022-12-04T12:38:24.329Z,101490.88
2022-12-04T12:40:57.733Z,101484.75
2022-12-04T12:43:30.341Z,101497.28
2022-12-04T12:46:12.308Z,101496.09
2022-12-04T12:48:47.011Z,101499.94
2022-12-04T12:51:30.382Z,101490.16
2022-12-04T12:54:09.992Z,101504.03
2022-12-04T12:56:44.808Z,101504.84
2022-12-04T12:59:19.870Z,101499.38
2022-12-04T13:01:49.888Z,101491.91
2022-12-04T13:04:25.539Z,101495.44
2022-12-04T13:07:04.652Z,101495.78
2022-12-04T13:09:37.176Z,101484.13
2022-12-04T13:12:09.783Z,101487.81
2022-12-04T13:14:36.911Z,101494.78
2022-12-04T13:17:27.579Z,101498.13
2022-12-04T13:19:55.858Z,101497.13
2022-12-04T13:22:30.176Z,101491.06
2022-12-04T13:25:06.271Z,101497.88
2022-12-04T13:28:06.730Z,101506.41
2022-12-04T13:31:12.529Z,101497.72
2022-12-04T13:33:55.057Z,101505.34
2022-12-04T13:36:24.638Z,101503.72
2022-12-04T13:39:03.283Z,101501.16
2022-12-04T13:41:33.627Z,101473.47
2022-12-04T13:44:05.604Z,101508.53
2022-12-04T13:46:36.428Z,101504.97
2022-12-04T13:49:18.384Z,101510.31
2022-12-04T13:51:46.765Z,101504.97
2022-12-04T13:54:13.361Z,101512.72
2022-12-04T13:57:15.389Z,101497.44
2022-12-04T13:59:42.765Z,101492.81
2022-12-04T14:02:28.936Z,101503.06
2022-12-04T14:05:02.083Z,101507.22
2022-12-04T14:07:32.926Z,101502.84
2022-12-04T14:10:22.523Z,101492.41
2022-12-04T14:12:58.479Z,101506.06
2022-12-04T14:15:27.594Z,101485.16
2022-12-04T14:18:03.706Z,101490.66
2022-12-04T14:20:34.826Z,101490.56
2022-12-04T14:23:33.703Z,101494.97
2022-12-04T14:26:01.409Z,101477.66
2022-12-04T14:28:28.030Z,101494.28
2022-12-04T14:31:32.429Z,101498.63
2022-12-04T14:34:14.798Z,101505.69
2022-12-04T14:36:44.332Z,101498.63
2022-12-04T14:39:29.863Z,101495.38
2022-12-04T14:42:11.947Z,101497.88
2022-12-04T14:44:39.281Z,101495.91
2022-12-04T14:47:38.668Z,101488.16
2022-12-04T14:50:20.849Z,101494.16
2022-12-04T14:53:05.542Z,101489.25
2022-12-04T14:55:54.173Z,101493.66
2022-12-04T14:58:31.035Z,101487.38
2022-12-04T15:01:03.179Z,101494.91
2022-12-04T15:03:32.140Z,101500.88
2022-12-04T15:06:12.140Z,101492.41
2022-12-04T15:08:49.516Z,101494.91
2022-12-04T15:11:38.506Z,101496.41
2022-12-04T15:14:12.837Z,101492.91
2022-12-04T15:16:39.818Z,101491.06
2022-12-04T15:19:17.196Z,101495.09
2022-12-04T15:21:44.106Z,101482.31
2022-12-04T15:24:19.629Z,101491.66
2022-12-04T15:26:47.648Z,101496.00
2022-12-04T15:29:20.168Z,101488.41
2022-12-04T15:31:49.350Z,101495.25
2022-12-04T15:34:19.409Z,101489.41
2022-12-04T15:36:52.063Z,101491.16
2022-12-04T15:39:20.901Z,101493.63
2022-12-04T15:41:48.049Z,101478.97
2022-12-04T15:44:47.317Z,101479.03
2022-12-04T15:47:22.607Z,101482.59
2022-12-04T15:49:49.392Z,101490.06
2022-12-04T16:04:54.038Z,101501.09
2022-12-04T16:07:26.494Z,101412.91
2022-12-04T16:10:03.239Z,101465.16
2022-12-04T16:12:32.172Z,101471.00
2022-12-04T16:14:58.946Z,101471.78
2022-12-04T16:17:56.080Z,101478.50
2022-12-04T16:20:22.992Z,101478.38
2022-12-04T16:22:51.616Z,101426.69
2022-12-04T16:25:18.277Z,101453.94
2022-12-04T16:27:44.946Z,101463.34
2022-12-04T16:30:14.008Z,101464.06
2022-12-04T16:32:59.492Z,101453.41
2022-12-04T16:36:01.369Z,101455.09
2022-12-04T16:38:58.176Z,101463.56
2022-12-04T16:41:25.201Z,101448.66
2022-12-04T16:44:39.973Z,101437.19
2022-12-04T16:47:36.281Z,101469.56
2022-12-04T16:50:18.715Z,101456.78
2022-12-04T16:53:42.426Z,101353.50
2022-12-04T16:56:34.166Z,101364.53
2022-12-04T16:59:34.735Z,101364.44
2022-12-04T17:02:20.055Z,101352.59
2022-12-04T17:05:35.712Z,101461.81
2022-12-04T17:08:15.682Z,101383.91
2022-12-04T17:11:06.195Z,101383.75
2022-12-04T17:13:33.006Z,101401.44
2022-12-04T17:16:02.249Z,101461.19
2022-12-04T17:18:29.005Z,101468.63
2022-12-04T17:20:55.751Z,101459.31
2022-12-04T17:23:22.401Z,101454.91
2022-12-04T17:25:49.163Z,101451.03
2022-12-04T17:28:15.947Z,101458.78
2022-12-04T17:30:46.449Z,101456.84
2022-12-04T17:33:13.386Z,101462.03
2022-12-04T17:35:50.008Z,101452.94
2022-12-04T17:38:19.689Z,101337.69
2022-12-04T17:40:46.460Z,101420.84
2022-12-04T17:43:17.508Z,101457.19
2022-12-04T17:45:47.143Z,101453.53
2022-12-04T17:48:13.818Z,101472.34
2022-12-04T17:50:40.408Z,101448.75
2022-12-04T17:53:07.042Z,101464.06
2022-12-04T17:55:34.541Z,101468.63
2022-12-04T17:58:01.185Z,101465.91
2022-12-04T18:00:27.881Z,101452.81
2022-12-04T18:02:54.548Z,101458.78
2022-12-04T18:05:21.609Z,101467.97
2022-12-04T18:07:48.322Z,101446.88
2022-12-04T18:10:15.122Z,101474.78
2022-12-04T18:12:41.799Z,101464.72
2022-12-04T18:15:08.661Z,101474.19
2022-12-04T18:17:35.351Z,101474.78
2022-12-04T18:20:05.138Z,101464.25
2022-12-04T18:22:32.444Z,101448.94
2022-12-04T18:24:59.165Z,101455.41
2022-12-04T18:27:25.849Z,101456.19
2022-12-04T18:30:09.826Z,101454.44
2022-12-04T18:32:36.497Z,101463.66
2022-12-04T18:35:03.211Z,101466.97
2022-12-04T18:37:29.932Z,101466.78
2022-12-04T18:39:58.382Z,101482.97
2022-12-04T18:42:27.803Z,101485.19
2022-12-04T18:44:54.404Z,101478.53
2022-12-04T18:47:21.194Z,101471.66
2022-12-04T18:49:48.129Z,101482.72
2022-12-04T18:52:14.818Z,101485.19
2022-12-04T18:54:41.817Z,101490.28
2022-12-04T18:57:08.546Z,101487.31
2022-12-04T18:59:36.603Z,101499.28
2022-12-04T19:02:03.318Z,101496.66
2022-12-04T19:04:32.532Z,101488.75
2022-12-04T19:06:59.224Z,101493.88
2022-12-04T19:09:54.362Z,101501.44
2022-12-04T19:12:14.458Z,101500.22
2022-12-04T19:14:41.250Z,101505.25
2022-12-04T19:17:08.296Z,101510.44
2022-12-04T19:19:34.964Z,101502.53
2022-12-04T19:22:02.363Z,101504.38
2022-12-04T19:24:29.029Z,101509.38
2022-12-04T19:26:55.691Z,101502.91
2022-12-04T19:29:22.333Z,101508.00
2022-12-04T19:31:49.043Z,101497.56
2022-12-04T19:34:16.573Z,101521.63
2022-12-04T19:36:45.445Z,101515.31
2022-12-04T19:39:12.616Z,101517.69
2022-12-04T19:41:40.895Z,101522.78
2022-12-04T19:44:26.415Z,101520.06
2022-12-04T19:46:54.183Z,101516.91
2022-12-04T19:49:20.980Z,101512.91
2022-12-04T19:51:48.497Z,101524.91
2022-12-04T19:54:15.554Z,101525.72
2022-12-04T19:56:45.869Z,101525.47
2022-12-04T19:59:12.971Z,101527.19
2022-12-04T20:01:39.828Z,101527.28
2022-12-04T20:04:08.910Z,101528.00
2022-12-04T20:06:38.650Z,101533.88
2022-12-04T20:09:08.183Z,101526.06
2022-12-04T20:11:35.736Z,101528.53
2022-12-04T20:14:04.098Z,101524.78
2022-12-04T20:16:36.089Z,101542.97
2022-12-04T20:19:04.313Z,101535.03
2022-12-04T20:21:32.688Z,101535.13
2022-12-04T20:24:03.054Z,101519.31
2022-12-04T20:26:32.942Z,101535.75
2022-12-04T20:29:00.741Z,101536.38
2022-12-04T20:31:33.431Z,101544.19
2022-12-04T20:34:02.478Z,101536.47
2022-12-04T20:36:30.607Z,101539.78
2022-12-04T20:38:58.769Z,101529.34
2022-12-04T20:41:29.576Z,101543.13
2022-12-04T20:43:59.589Z,101529.97
2022-12-04T20:46:37.231Z,101542.16
2022-12-04T20:49:06.537Z,101540.16
2022-12-04T20:51:35.992Z,101544.72
2022-12-04T20:54:03.568Z,101533.03
2022-12-04T20:56:35.831Z,101548.50
2022-12-04T20:59:04.993Z,101539.81
2022-12-04T21:01:32.360Z,101544.19
2022-12-04T21:04:00.488Z,101532.06
2022-12-04T21:06:35.250Z,101537.53
2022-12-04T21:09:06.768Z,101534.63
2022-12-04T21:11:55.025Z,101534.53
2022-12-04T21:14:45.387Z,101546.41
2022-12-04T21:17:18.459Z,101532.66
2022-12-04T21:19:50.616Z,101532.75
2022-12-04T21:22:18.973Z,101528.13
2022-12-04T21:24:45.654Z,101520.31
2022-12-04T21:27:15.846Z,101521.81
2022-12-04T21:29:47.983Z,101520.22
2022-12-04T21:32:14.670Z,101533.22
2022-12-04T21:34:41.314Z,101521.72
2022-12-04T21:37:08.006Z,101529.63
2022-12-04T21:39:36.102Z,101532.75
2022-12-04T21:42:22.006Z,101526.00
2022-12-04T21:44:48.731Z,101521.72
2022-12-04T21:47:15.540Z,101530.03
2022-12-04T21:49:42.265Z,101518.34
2022-12-04T21:52:08.920Z,101522.41
2022-12-04T21:54:35.597Z,101518.16
2022-12-04T21:57:02.247Z,101513.09
2022-12-04T21:59:28.943Z,101515.63
2022-12-04T22:01:55.725Z,101491.22
2022-12-04T22:04:22.772Z,101500.72
2022-12-04T22:06:49.697Z,101513.44
2022-12-04T22:09:16.767Z,101504.66
2022-12-04T22:11:43.532Z,101512.47
2022-12-04T22:14:11.178Z,101503.16
2022-12-04T22:16:42.014Z,101495.03
2022-12-04T22:19:11.103Z,101513.94
2022-12-04T22:21:37.897Z,101504.66
2022-12-04T22:24:05.067Z,101516.25
2022-12-04T22:26:32.069Z,101513.66
2022-12-04T22:28:59.279Z,101492.66
2022-12-04T22:31:29.427Z,101503.88
2022-12-04T22:33:57.868Z,101502.03
2022-12-04T22:36:27.181Z,101474.00
2022-12-04T22:39:10.864Z,101515.47
2022-12-04T22:41:38.517Z,101502.97
2022-12-04T22:44:05.536Z,101493.88
2022-12-04T22:46:32.666Z,101499.91
2022-12-04T22:48:59.959Z,101505.00
2022-12-04T22:51:27.433Z,101501.50
2022-12-04T22:53:56.974Z,101502.88
2022-12-04T22:56:30.933Z,101500.50
2022-12-04T22:58:58.588Z,101505.41
2022-12-04T23:01:30.097Z,101495.09
2022-12-04T23:03:57.119Z,101493.91
2022-12-04T23:06:26.180Z,101505.25
2022-12-04T23:09:12.798Z,101493.63
2022-12-04T23:11:40.365Z,101512.63
2022-12-04T23:14:09.037Z,101501.25
2022-12-04T23:16:37.774Z,101507.25
2022-12-04T23:19:05.793Z,101501.88
2022-12-04T23:21:32.962Z,101495.94
2022-12-04T23:23:59.890Z,101503.47
2022-12-04T23:26:31.768Z,101515.38
2022-12-04T23:28:58.810Z,101515.19
2022-12-04T23:31:25.867Z,101510.72
2022-12-04T23:33:52.545Z,101511.31
2022-12-04T23:36:19.442Z,101505.16
2022-12-04T23:38:46.580Z,101507.88
2022-12-04T23:41:16.307Z,101503.41
2022-12-04T23:43:43.727Z,101491.28
2022-12-04T23:46:12.469Z,101497.97
2022-12-04T23:48:40.029Z,101481.31
2022-12-04T23:51:07.818Z,101504.50
2022-12-04T23:53:34.965Z,101491.59
2022-12-04T23:56:11.979Z,101500.41
2022-12-04T23:58:39.356Z,101494.31
